Time;durP1;ratioP1;P1;durP2;ratioP2;P2;SDS_P1;SDS_P2;PMS_P1;PMS_P2;Temp;Humidity;BMP_temperature;BMP_pressure;BME280_temperature;BME280_humidity;BME280_pressure;Samples;Min_cycle;Max_cycle;Signal;HPM_P1;HPM_P2
2022/07/28 00:02:22;;;;;;;;;;;;;;;18.51;74.60;99184.01;1662657;85;21816;-76
2022/07/28 00:04:48;;;;;;;;;;;;;;;18.49;74.65;99188.25;1663644;85;20216;-76
2022/07/28 00:07:15;;;;;;;;;;;;;;;18.47;74.83;99195.75;1659383;85;20156;-76
2022/07/28 00:09:41;;;;;;;;;;;;;;;18.44;74.92;99195.65;1650430;85;20172;-75
2022/07/28 00:12:07;;;;;;;;;;;;;;;18.40;74.97;99198.52;1653096;85;20165;-75
2022/07/28 00:14:35;;;;;;;;;;;;;;;18.38;75.12;99197.89;1650922;85;20121;-76
2022/07/28 00:17:02;;;;;;;;;;;;;;;18.39;75.23;99204.11;1654286;85;20110;-76
2022/07/28 00:19:34;;;;;;;;;;;;;;;18.39;75.19;99211.67;1653661;85;20158;-76
2022/07/28 00:21:58;;;;;;;;;;;;;;;18.40;75.16;99206.59;1654692;85;20426;-76
2022/07/28 00:24:24;;;;;;;;;;;;;;;18.42;75.17;99205.01;1653132;85;20092;-76
2022/07/28 00:26:51;;;;;;;;;;;;;;;18.46;75.11;99202.14;1653002;85;21568;-77
2022/07/28 00:29:17;;;;;;;;;;;;;;;18.47;75.00;99201.96;1649947;85;20460;-76
2022/07/28 00:31:43;;;;;;;;;;;;;;;18.50;74.84;99207.42;1651847;85;20129;-76
2022/07/28 00:34:10;;;;;;;;;;;;;;;18.52;74.72;99204.48;1652939;85;20144;-77
2022/07/28 00:36:37;;;;;;;;;;;;;;;18.53;74.79;99206.14;1653086;85;20093;-76
2022/07/28 00:39:04;;;;;;;;;;;;;;;18.54;74.84;99206.45;1649474;85;21112;-76
2022/07/28 00:41:30;;;;;;;;;;;;;;;18.53;74.92;99216.39;1652867;85;20144;-76
2022/07/28 00:43:57;;;;;;;;;;;;;;;18.51;74.87;99213.08;1653005;85;20154;-77
2022/07/28 00:46:23;;;;;;;;;;;;;;;18.42;74.56;99215.78;1652897;85;20121;-76
2022/07/28 00:48:52;;;;;;;;;;;;;;;18.30;74.35;99217.60;1650935;85;20477;-77
2022/07/28 00:51:23;;;;;;;;;;;;;;;18.18;74.49;99222.91;1650608;85;21186;-76
2022/07/28 00:53:49;;;;;;;;;;;;;;;18.12;74.47;99217.61;1653061;85;20224;-76
2022/07/28 00:56:16;;;;;;;;;;;;;;;17.97;74.08;99217.97;1653069;85;20101;-76
2022/07/28 00:58:42;;;;;;;;;;;;;;;17.84;74.23;99224.31;1650476;85;20081;-77
2022/07/28 01:01:10;;;;;;;;;;;;;;;17.77;74.54;99227.61;1652946;85;20093;-76
2022/07/28 01:03:40;;;;;;;;;;;;;;;17.72;74.75;99218.03;1653047;85;21782;-76
2022/07/28 01:06:15;;;;;;;;;;;;;;;17.67;74.74;99224.61;1653670;85;20114;-78
2022/07/28 01:08:51;;;;;;;;;;;;;;;17.59;74.95;99212.79;1661629;85;20106;-75
2022/07/28 01:11:23;;;;;;;;;;;;;;;17.55;75.02;99216.12;1656875;85;20122;-76
2022/07/28 01:14:06;;;;;;;;;;;;;;;17.49;75.22;99216.98;1656787;85;20138;-76
2022/07/28 01:16:30;;;;;;;;;;;;;;;17.42;75.46;99219.72;1659855;85;21276;-76
2022/07/28 01:19:04;;;;;;;;;;;;;;;17.35;75.74;99214.94;1664315;85;20094;-76
2022/07/28 01:21:33;;;;;;;;;;;;;;;17.28;76.04;99217.66;1659110;85;20553;-77
2022/07/28 01:24:19;;;;;;;;;;;;;;;17.26;76.20;99214.89;1656740;85;20656;-76
2022/07/28 01:27:02;;;;;;;;;;;;;;;17.23;76.23;99218.04;1656485;85;20145;-76
2022/07/28 01:29:50;;;;;;;;;;;;;;;17.15;76.31;99216.42;1649903;85;21344;-76
2022/07/28 01:32:38;;;;;;;;;;;;;;;17.07;76.55;99219.41;1656372;85;20463;-76
2022/07/28 01:35:08;;;;;;;;;;;;;;;17.02;76.74;99221.09;1656772;85;20098;-76
2022/07/28 01:37:44;;;;;;;;;;;;;;;16.96;76.87;99221.44;1662681;85;20185;-77
2022/07/28 01:40:12;;;;;;;;;;;;;;;16.91;77.05;99217.75;1656190;85;20130;-76
2022/07/28 01:42:42;;;;;;;;;;;;;;;16.88;77.17;99217.67;1656849;85;21225;-76
2022/07/28 01:45:09;;;;;;;;;;;;;;;16.89;77.26;99222.53;1656657;85;20126;-75
2022/07/28 01:47:36;;;;;;;;;;;;;;;16.88;77.29;99217.67;1665035;85;20174;-76
2022/07/28 01:50:04;;;;;;;;;;;;;;;16.86;77.45;99222.95;1656713;85;20094;-76
2022/07/28 01:52:31;;;;;;;;;;;;;;;16.85;77.71;99226.16;1656786;85;20165;-76
2022/07/28 01:54:58;;;;;;;;;;;;;;;16.84;78.04;99220.47;1652587;85;21156;-76
2022/07/28 01:57:25;;;;;;;;;;;;;;;16.84;78.23;99224.50;1666884;85;20120;-76
2022/07/28 01:59:51;;;;;;;;;;;;;;;16.83;78.32;99225.55;1655881;85;20432;-76
2022/07/28 02:02:18;;;;;;;;;;;;;;;16.81;78.29;99223.61;1656678;85;20171;-76
2022/07/28 02:04:46;;;;;;;;;;;;;;;16.77;78.28;99225.06;1656883;85;20122;-76
2022/07/28 02:07:12;;;;;;;;;;;;;;;16.73;77.87;99224.37;1665013;85;21146;-76
2022/07/28 02:09:38;;;;;;;;;;;;;;;16.64;77.80;99221.94;1659676;85;20098;-76
2022/07/28 02:12:05;;;;;;;;;;;;;;;16.57;77.93;99225.70;1656747;85;20186;-77
2022/07/28 02:14:31;;;;;;;;;;;;;;;16.49;78.16;99234.80;1655368;85;20127;-77
2022/07/28 02:17:03;;;;;;;;;;;;;;;16.45;78.50;99232.77;1647404;85;20106;-76
2022/07/28 02:19:29;;;;;;;;;;;;;;;16.45;79.06;99229.54;1662545;85;21108;-76
2022/07/28 02:21:55;;;;;;;;;;;;;;;16.48;79.52;99229.63;1656721;85;20090;-77
2022/07/28 02:24:27;;;;;;;;;;;;;;;16.51;80.06;99225.17;1656975;85;20090;-77
2022/07/28 02:26:57;;;;;;;;;;;;;;;16.55;80.48;99227.79;1656820;85;20840;-77
2022/07/28 02:29:25;;;;;;;;;;;;;;;16.59;80.85;99222.28;1655239;85;20161;-77
2022/07/28 02:31:54;;;;;;;;;;;;;;;16.62;81.05;99221.86;1661452;85;22673;-77
2022/07/28 02:34:21;;;;;;;;;;;;;;;16.66;81.15;99222.55;1626764;86;20520;-77
2022/07/28 02:36:54;;;;;;;;;;;;;;;16.70;81.29;99231.52;1654501;85;20440;-77
2022/07/28 02:39:44;;;;;;;;;;;;;;;16.73;81.54;99230.58;1671535;84;20166;-76
2022/07/28 02:42:13;;;;;;;;;;;;;;;16.77;81.73;99234.47;1655463;85;20197;-78
2022/07/28 02:44:41;;;;;;;;;;;;;;;16.82;81.79;99235.98;1681225;84;21175;-77
2022/07/28 02:47:09;;;;;;;;;;;;;;;16.86;81.87;99247.13;1657576;86;20142;-78
2022/07/28 02:49:36;;;;;;;;;;;;;;;16.91;82.01;99249.48;1634949;86;20471;-76
2022/07/28 02:52:05;;;;;;;;;;;;;;;16.96;81.99;99252.85;1654447;85;20850;-77
2022/07/28 02:54:31;;;;;;;;;;;;;;;16.98;81.76;99251.59;1674187;84;20149;-77
2022/07/28 02:56:59;;;;;;;;;;;;;;;17.00;81.56;99258.08;1686310;84;21098;-76
2022/07/28 02:59:25;;;;;;;;;;;;;;;17.03;81.54;99251.77;1655785;85;20225;-77
2022/07/28 03:01:51;;;;;;;;;;;;;;;17.09;81.55;99256.28;1672001;84;20182;-77
2022/07/28 03:04:55;;;;;;;;;;;;;;;17.20;81.45;99259.63;1641402;86;20172;-77
2022/07/28 03:06:48;;;;;;;;;;;;;;;17.27;80.99;99259.05;1649649;85;20103;-77
2022/07/28 03:09:14;;;;;;;;;;;;;;;17.31;80.23;99262.64;1664239;85;21801;-77
2022/07/28 03:11:52;;;;;;;;;;;;;;;17.34;79.52;99266.25;1647204;85;20130;-77
2022/07/28 03:14:18;;;;;;;;;;;;;;;17.41;79.06;99272.39;1669513;84;20418;-77
2022/07/28 03:16:45;;;;;;;;;;;;;;;17.48;78.37;99267.25;1671922;84;20175;-77
2022/07/28 03:19:11;;;;;;;;;;;;;;;17.55;77.80;99265.36;1649297;86;20430;-77
2022/07/28 03:21:40;;;;;;;;;;;;;;;17.67;77.35;99271.69;1669371;84;21160;-77
2022/07/28 03:24:05;;;;;;;;;;;;;;;17.81;76.70;99272.36;1664300;84;20120;-77
2022/07/28 03:26:40;;;;;;;;;;;;;;;17.95;75.81;99274.41;1675851;84;20153;-77
2022/07/28 03:29:06;;;;;;;;;;;;;;;18.10;75.28;99283.77;1666910;84;20101;-77
2022/07/28 03:31:33;;;;;;;;;;;;;;;18.31;74.95;99283.84;1635607;86;20090;-77
2022/07/28 03:33:59;;;;;;;;;;;;;;;18.55;74.16;99282.16;1668367;84;21446;-77
2022/07/28 03:36:32;;;;;;;;;;;;;;;18.80;73.37;99285.03;1662137;84;20122;-77
2022/07/28 03:39:01;;;;;;;;;;;;;;;19.08;72.75;99286.59;1663309;85;20144;-77
2022/07/28 03:41:28;;;;;;;;;;;;;;;19.43;71.72;99288.60;1647387;85;20634;-77
2022/07/28 03:43:54;;;;;;;;;;;;;;;19.75;70.67;99283.72;1664250;84;20821;-77
2022/07/28 03:46:20;;;;;;;;;;;;;;;20.09;69.53;99278.33;1650709;85;21162;-77
2022/07/28 03:48:47;;;;;;;;;;;;;;;20.45;68.42;99285.86;1654160;85;20102;-77
2022/07/28 03:51:13;;;;;;;;;;;;;;;20.81;67.36;99286.34;1664177;85;20091;-76
2022/07/28 03:53:39;;;;;;;;;;;;;;;21.22;66.02;99285.80;1647307;86;20659;-76
2022/07/28 03:56:06;;;;;;;;;;;;;;;21.64;64.84;99290.30;1685881;84;20100;-76
2022/07/28 03:58:34;;;;;;;;;;;;;;;22.07;63.61;99293.16;1635051;86;21593;-77
2022/07/28 04:01:00;;;;;;;;;;;;;;;22.51;61.75;99289.97;1664148;85;20475;-77
2022/07/28 04:03:26;;;;;;;;;;;;;;;22.95;60.82;99294.85;1647355;85;20179;-76
2022/07/28 04:05:56;;;;;;;;;;;;;;;23.40;59.37;99285.86;1670149;84;20232;-76
2022/07/28 04:08:23;;;;;;;;;;;;;;;23.86;58.14;99286.50;1664099;85;20091;-77
2022/07/28 04:10:49;;;;;;;;;;;;;;;24.41;56.56;99277.90;1647382;85;21146;-76
2022/07/28 04:13:17;;;;;;;;;;;;;;;24.91;55.06;99275.95;1669227;84;20125;-77
2022/07/28 04:15:43;;;;;;;;;;;;;;;25.39;53.71;99280.12;1662883;84;20116;-77
2022/07/28 04:18:10;;;;;;;;;;;;;;;25.76;52.67;99275.77;1660926;85;20091;-77
2022/07/28 04:20:37;;;;;;;;;;;;;;;25.97;51.28;99271.14;1669237;84;20189;-77
2022/07/28 04:23:04;;;;;;;;;;;;;;;25.93;50.94;99268.68;1667620;84;21164;-76
2022/07/28 04:25:31;;;;;;;;;;;;;;;25.80;50.49;99267.88;1672943;84;20458;-76
2022/07/28 04:27:58;;;;;;;;;;;;;;;25.64;50.48;99269.26;1631853;86;20119;-76
2022/07/28 04:30:26;;;;;;;;;;;;;;;25.52;50.58;99266.00;1660493;84;20430;-77
2022/07/28 04:32:54;;;;;;;;;;;;;;;25.61;50.67;99268.44;1638195;86;20114;-76
2022/07/28 04:35:23;;;;;;;;;;;;;;;26.06;49.85;99276.30;1672819;84;21162;-76
2022/07/28 04:37:50;;;;;;;;;;;;;;;26.53;48.89;99272.64;1664408;84;20101;-77
2022/07/28 04:40:16;;;;;;;;;;;;;;;27.04;48.21;99271.86;1664230;84;20156;-76
2022/07/28 04:42:42;;;;;;;;;;;;;;;27.60;47.09;99266.03;1663915;84;20642;-76
2022/07/28 04:45:10;;;;;;;;;;;;;;;28.13;46.17;99272.65;1672313;85;20146;-76
2022/07/28 04:47:37;;;;;;;;;;;;;;;28.76;44.91;99269.20;1634992;86;21249;-76
2022/07/28 04:50:04;;;;;;;;;;;;;;;29.38;43.28;99271.92;1664255;85;20095;-76
2022/07/28 04:52:32;;;;;;;;;;;;;;;29.91;41.90;99266.38;1647109;85;20170;-75
2022/07/28 04:54:58;;;;;;;;;;;;;;;30.44;40.59;99271.71;1680273;84;20091;-76
2022/07/28 04:57:28;;;;;;;;;;;;;;;30.80;39.84;99271.77;1638130;85;20147;-77
2022/07/28 04:59:57;;;;;;;;;;;;;;;31.17;39.39;99274.83;1670357;84;21804;-76
2022/07/28 05:02:23;;;;;;;;;;;;;;;31.67;37.81;99269.52;1648488;86;20083;-76
2022/07/28 05:04:49;;;;;;;;;;;;;;;32.20;35.90;99274.23;1643049;86;20416;-76
2022/07/28 05:07:16;;;;;;;;;;;;;;;32.65;34.99;99271.57;1643095;86;20126;-76
2022/07/28 05:09:43;;;;;;;;;;;;;;;33.08;34.44;99270.31;1642254;86;20095;-76
2022/07/28 05:12:10;;;;;;;;;;;;;;;33.42;34.07;99274.46;1629768;86;21074;-76
2022/07/28 05:14:38;;;;;;;;;;;;;;;33.86;33.34;99276.05;1642898;86;20132;-77
2022/07/28 05:17:06;;;;;;;;;;;;;;;34.25;32.61;99276.37;1650913;86;20152;-77
2022/07/28 05:19:33;;;;;;;;;;;;;;;34.60;32.00;99275.64;1651086;86;20240;-77
2022/07/28 05:22:00;;;;;;;;;;;;;;;34.78;31.64;99271.67;1647463;86;20158;-76
2022/07/28 05:24:26;;;;;;;;;;;;;;;35.24;31.20;99264.62;1645560;86;21168;-76
2022/07/28 05:26:52;;;;;;;;;;;;;;;35.76;30.71;99268.31;1645557;86;20119;-76
2022/07/28 05:29:19;;;;;;;;;;;;;;;36.13;30.02;99272.83;1645656;86;20122;-76
2022/07/28 05:31:45;;;;;;;;;;;;;;;36.43;29.53;99275.61;1656550;86;20668;-77
2022/07/28 05:34:15;;;;;;;;;;;;;;;36.72;29.01;99273.79;1646096;85;20435;-77
2022/07/28 05:36:42;;;;;;;;;;;;;;;37.04;28.48;99272.29;1644052;86;21833;-76
2022/07/28 05:39:08;;;;;;;;;;;;;;;37.37;27.74;99281.77;1645291;86;20091;-76
2022/07/28 05:41:34;;;;;;;;;;;;;;;37.55;27.67;99283.70;1646248;86;20135;-77
2022/07/28 05:44:01;;;;;;;;;;;;;;;37.85;27.35;99286.92;1645530;86;20157;-77
2022/07/28 05:46:27;;;;;;;;;;;;;;;38.06;26.63;99277.81;1649539;86;20237;-77
2022/07/28 05:48:53;;;;;;;;;;;;;;;38.37;26.34;99282.02;1658517;85;21105;-77
2022/07/28 05:51:20;;;;;;;;;;;;;;;38.86;25.74;99283.25;1655092;85;20115;-75
2022/07/28 05:53:46;;;;;;;;;;;;;;;39.31;25.41;99287.45;1655132;85;20420;-75
2022/07/28 05:56:12;;;;;;;;;;;;;;;39.61;24.60;99287.08;1652683;85;20150;-75
2022/07/28 05:58:40;;;;;;;;;;;;;;;39.72;24.28;99283.14;1652739;85;20247;-75
2022/07/28 06:01:07;;;;;;;;;;;;;;;40.03;23.91;99283.75;1658168;85;21337;-75
2022/07/28 06:03:35;;;;;;;;;;;;;;;40.42;23.61;99283.06;1650977;85;20119;-75
2022/07/28 06:06:04;;;;;;;;;;;;;;;40.67;22.87;99277.31;1648177;85;20094;-74
2022/07/28 06:08:32;;;;;;;;;;;;;;;40.58;22.41;99277.37;1651625;85;20215;-75
2022/07/28 06:11:00;;;;;;;;;;;;;;;40.40;22.27;99277.65;1671398;85;20125;-68
2022/07/28 06:13:28;;;;;;;;;;;;;;;40.42;22.29;99282.25;1664947;85;21164;-73
2022/07/28 06:15:57;;;;;;;;;;;;;;;40.76;21.70;99275.67;1663889;85;20106;-70
2022/07/28 06:18:25;;;;;;;;;;;;;;;40.85;21.65;99283.19;1683643;85;20129;-71
2022/07/28 06:20:52;;;;;;;;;;;;;;;40.80;21.76;99290.48;1665028;85;20658;-72
2022/07/28 06:23:23;;;;;;;;;;;;;;;40.83;21.06;99292.50;1665006;85;20160;-73
2022/07/28 06:25:50;;;;;;;;;;;;;;;40.92;20.87;99293.08;1655253;85;21186;-72
2022/07/28 06:28:17;;;;;;;;;;;;;;;41.38;21.01;99298.53;1678005;85;20095;-71
2022/07/28 06:30:47;;;;;;;;;;;;;;;42.04;20.10;99292.93;1668180;84;20162;-74
2022/07/28 06:33:16;;;;;;;;;;;;;;;42.59;19.51;99289.69;1677229;84;20126;-72
2022/07/28 06:35:43;;;;;;;;;;;;;;;42.94;17.73;99293.38;1688583;84;20517;-74
2022/07/28 06:38:12;;;;;;;;;;;;;;;42.56;17.64;99290.46;1670067;85;21232;-75
2022/07/28 06:40:41;;;;;;;;;;;;;;;42.18;17.28;99295.91;1669204;85;20210;-74
2022/07/28 06:43:12;;;;;;;;;;;;;;;41.91;17.63;99294.39;1678294;84;20208;-73
2022/07/28 06:45:39;;;;;;;;;;;;;;;41.87;17.80;99295.55;1654487;85;20217;-73
2022/07/28 06:48:07;;;;;;;;;;;;;;;41.83;17.42;99296.89;1670432;85;20104;-76
2022/07/28 06:50:38;;;;;;;;;;;;;;;41.85;17.70;99297.30;1692922;84;21281;-74
2022/07/28 06:53:04;;;;;;;;;;;;;;;42.25;17.60;99298.76;1680139;85;20120;-73
2022/07/28 06:55:31;;;;;;;;;;;;;;;42.71;16.37;99302.58;1695386;84;20171;-76
2022/07/28 06:57:58;;;;;;;;;;;;;;;43.03;16.51;99300.80;1665392;86;20727;-75
2022/07/28 07:00:24;;;;;;;;;;;;;;;42.99;16.53;99297.20;1700724;84;20175;-75
2022/07/28 07:02:50;;;;;;;;;;;;;;;42.86;16.63;99294.48;1679332;84;22056;-72
2022/07/28 07:05:17;;;;;;;;;;;;;;;43.10;17.05;99293.84;1653488;86;20103;-74
2022/07/28 07:07:43;;;;;;;;;;;;;;;43.75;16.73;99303.61;1666385;85;20119;-72
2022/07/28 07:10:10;;;;;;;;;;;;;;;44.33;15.83;99304.73;1666617;85;20453;-73
2022/07/28 07:12:37;;;;;;;;;;;;;;;44.59;15.30;99304.36;1651690;85;20222;-73
2022/07/28 07:15:05;;;;;;;;;;;;;;;44.38;14.81;99302.92;1659014;85;21809;-74
2022/07/28 07:17:36;;;;;;;;;;;;;;;44.05;14.85;99301.27;1644706;85;20149;-74
2022/07/28 07:20:06;;;;;;;;;;;;;;;43.90;15.27;99300.24;1654541;85;20166;-72
2022/07/28 07:22:33;;;;;;;;;;;;;;;44.12;14.92;99308.91;1651358;85;20182;-71
2022/07/28 07:25:10;;;;;;;;;;;;;;;44.18;14.85;99301.72;1662931;84;20391;-71
2022/07/28 07:27:37;;;;;;;;;;;;;;;44.50;14.87;99313.80;1655174;84;21239;-73
2022/07/28 07:30:05;;;;;;;;;;;;;;;45.18;14.09;99314.53;1638479;85;20209;-72
2022/07/28 07:32:31;;;;;;;;;;;;;;;45.68;13.86;99311.77;1686157;84;20186;-71
2022/07/28 07:34:59;;;;;;;;;;;;;;;46.19;12.98;99314.52;1670009;84;20130;-71
2022/07/28 07:37:25;;;;;;;;;;;;;;;46.21;12.78;99310.67;1689264;84;20089;-74
2022/07/28 07:39:51;;;;;;;;;;;;;;;46.19;13.03;99309.70;1664389;85;20790;-75
2022/07/28 07:42:18;;;;;;;;;;;;;;;46.28;12.72;99310.02;1669447;84;20609;-75
2022/07/28 07:44:44;;;;;;;;;;;;;;;46.73;11.96;99310.06;1665789;84;20103;-75
2022/07/28 07:47:10;;;;;;;;;;;;;;;47.01;11.88;99307.80;1667047;84;20194;-76
2022/07/28 07:49:38;;;;;;;;;;;;;;;47.31;11.99;99302.07;1664879;85;20120;-75
2022/07/28 07:52:04;;;;;;;;;;;;;;;47.55;11.63;99313.68;1677433;84;21172;-76
2022/07/28 07:54:31;;;;;;;;;;;;;;;47.52;11.18;99313.91;1692887;84;20143;-74
2022/07/28 07:56:57;;;;;;;;;;;;;;;47.04;11.99;99313.20;1692935;84;20079;-75
2022/07/28 07:59:24;;;;;;;;;;;;;;;46.91;12.42;99311.53;1678609;84;20460;-75
2022/07/28 08:01:53;;;;;;;;;;;;;;;47.20;11.87;99314.06;1675723;84;20127;-75
2022/07/28 08:04:19;;;;;;;;;;;;;;;47.07;11.92;99307.55;1680751;84;21635;-71
2022/07/28 08:06:47;;;;;;;;;;;;;;;47.17;12.15;99310.07;1681654;84;20124;-76
2022/07/28 08:09:14;;;;;;;;;;;;;;;47.50;11.44;99320.59;1684954;84;20087;-78
2022/07/28 08:11:40;;;;;;;;;;;;;;;47.43;11.48;99316.40;1697259;84;20206;-78
2022/07/28 08:14:09;;;;;;;;;;;;;;;47.17;11.64;99313.52;1697187;84;20180;-78
2022/07/28 08:16:35;;;;;;;;;;;;;;;46.41;12.27;99317.41;1700134;84;21142;-78
2022/07/28 08:19:02;;;;;;;;;;;;;;;45.52;12.68;99323.27;1697382;84;20126;-77
2022/07/28 08:21:29;;;;;;;;;;;;;;;44.82;13.20;99330.61;1697441;84;20146;-77
2022/07/28 08:23:57;;;;;;;;;;;;;;;44.88;13.45;99331.82;1690570;84;20121;-78
2022/07/28 08:26:27;;;;;;;;;;;;;;;45.76;12.83;99325.97;1640826;86;20465;-78
2022/07/28 08:28:53;;;;;;;;;;;;;;;46.18;12.32;99326.36;1669274;84;21804;-76
2022/07/28 08:31:20;;;;;;;;;;;;;;;46.03;12.38;99328.27;1640666;86;20192;-77
2022/07/28 08:33:48;;;;;;;;;;;;;;;45.93;12.54;99322.88;1671567;84;20101;-77
2022/07/28 08:36:14;;;;;;;;;;;;;;;45.92;12.38;99331.11;1671569;84;20140;-76
2022/07/28 08:38:42;;;;;;;;;;;;;;;45.66;12.31;99327.43;1669905;84;20129;-78
2022/07/28 08:41:12;;;;;;;;;;;;;;;45.44;12.51;99332.33;1669566;84;21217;-78
2022/07/28 08:43:38;;;;;;;;;;;;;;;45.35;12.64;99328.53;1669135;84;20102;-79
2022/07/28 08:46:06;;;;;;;;;;;;;;;44.44;13.00;99340.59;1669300;84;20121;-79
2022/07/28 08:48:35;;;;;;;;;;;;;;;43.80;13.31;99339.64;1680989;84;20162;-76
2022/07/28 08:51:04;;;;;;;;;;;;;;;43.76;13.63;99336.02;1640839;86;20202;-77
2022/07/28 08:53:34;;;;;;;;;;;;;;;43.73;13.67;99339.59;1669209;84;20133;-77
2022/07/28 08:56:03;;;;;;;;;;;;;;;43.88;13.53;99332.06;1669238;84;20236;-77
2022/07/28 08:58:31;;;;;;;;;;;;;;;43.28;14.04;99332.55;1640809;86;20101;-77
2022/07/28 09:00:58;;;;;;;;;;;;;;;42.12;14.72;99326.77;1640838;86;20118;-78
2022/07/28 09:03:28;;;;;;;;;;;;;;;40.95;15.47;99331.96;1669327;84;20116;-78
2022/07/28 09:05:55;;;;;;;;;;;;;;;40.81;15.94;99332.50;1640707;86;21202;-76
2022/07/28 09:08:21;;;;;;;;;;;;;;;41.55;15.61;99331.44;1679355;84;20158;-77
2022/07/28 09:10:47;;;;;;;;;;;;;;;42.63;15.33;99327.48;1659112;85;20190;-76
2022/07/28 09:13:16;;;;;;;;;;;;;;;42.95;14.85;99324.33;1672146;84;20075;-74
2022/07/28 09:15:45;;;;;;;;;;;;;;;42.43;15.05;99331.86;1687458;84;20178;-69
2022/07/28 09:18:14;;;;;;;;;;;;;;;42.74;15.18;99333.94;1697533;84;21817;-77
2022/07/28 09:20:42;;;;;;;;;;;;;;;43.67;14.82;99336.97;1647787;85;20152;-77
2022/07/28 09:23:09;;;;;;;;;;;;;;;44.02;14.10;99337.69;1676552;84;20107;-77
2022/07/28 09:25:35;;;;;;;;;;;;;;;43.91;14.20;99334.08;1659198;85;20101;-77
2022/07/28 09:28:09;;;;;;;;;;;;;;;43.21;14.38;99325.50;1676639;84;20455;-77
2022/07/28 09:30:40;;;;;;;;;;;;;;;42.36;15.30;99331.00;1659273;85;21173;-78
2022/07/28 09:33:23;;;;;;;;;;;;;;;41.69;15.77;99331.63;1659248;85;20178;-77
2022/07/28 09:35:51;;;;;;;;;;;;;;;40.85;16.35;99330.59;1659280;85;20456;-77
2022/07/28 09:38:19;;;;;;;;;;;;;;;39.93;17.33;99337.85;1676745;84;38040;-76
2022/07/28 09:41:00;;;;;;;;;;;;;;;38.98;17.74;99335.14;1659291;85;20126;-77
2022/07/28 09:43:38;;;;;;;;;;;;;;;38.00;18.42;99339.73;1676631;84;21152;-77
2022/07/28 09:46:16;;;;;;;;;;;;;;;37.19;19.53;99346.19;1659315;85;20090;-78
2022/07/28 09:48:52;;;;;;;;;;;;;;;36.61;20.27;99341.92;1676746;84;20087;-77
2022/07/28 09:51:22;;;;;;;;;;;;;;;36.15;21.08;99340.30;1660110;85;20121;-79
2022/07/28 09:53:49;;;;;;;;;;;;;;;35.82;21.41;99343.84;1653101;85;20129;-78
2022/07/28 09:56:17;;;;;;;;;;;;;;;35.45;21.48;99343.42;1659187;85;20102;-77
2022/07/28 09:58:54;;;;;;;;;;;;;;;35.06;21.66;99346.05;1676629;84;20448;-77
2022/07/28 10:01:21;;;;;;;;;;;;;;;34.62;21.89;99350.16;1659310;85;20141;-77
2022/07/28 10:03:53;;;;;;;;;;;;;;;34.18;22.39;99342.32;1676583;84;20708;-78
2022/07/28 10:06:28;;;;;;;;;;;;;;;33.81;23.02;99352.09;1659383;85;20135;-77
2022/07/28 10:08:56;;;;;;;;;;;;;;;33.63;23.12;99353.23;1674561;84;21483;-77
2022/07/28 10:11:23;;;;;;;;;;;;;;;33.46;23.32;99355.38;1647380;85;20131;-77
2022/07/28 10:13:56;;;;;;;;;;;;;;;33.24;23.57;99353.34;1647437;85;20131;-78
2022/07/28 10:16:27;;;;;;;;;;;;;;;33.17;23.63;99354.36;1647190;85;20111;-78
2022/07/28 10:18:56;;;;;;;;;;;;;;;33.13;23.80;99356.14;1668610;84;20089;-78
2022/07/28 10:21:24;;;;;;;;;;;;;;;32.87;23.85;99347.23;1635856;86;21299;-78
2022/07/28 10:23:55;;;;;;;;;;;;;;;32.58;24.29;99355.22;1635995;86;20134;-77
2022/07/28 10:26:34;;;;;;;;;;;;;;;32.47;24.99;99362.09;1664221;85;20127;-78
2022/07/28 10:29:03;;;;;;;;;;;;;;;32.50;25.44;99360.09;1647444;85;20134;-80
2022/07/28 10:31:50;;;;;;;;;;;;;;;32.52;24.32;99361.13;1669321;84;20110;-78
2022/07/28 10:34:44;;;;;;;;;;;;;;;32.45;23.89;99358.84;1635748;86;21233;-78
2022/07/28 10:37:22;;;;;;;;;;;;;;;32.33;23.95;99355.30;1664217;85;20092;-77
2022/07/28 10:40:04;;;;;;;;;;;;;;;32.20;24.58;99356.78;1669483;84;20101;-78
2022/07/28 10:42:31;;;;;;;;;;;;;;;32.25;24.40;99350.55;1635857;86;20444;-78
2022/07/28 10:44:57;;;;;;;;;;;;;;;32.25;24.46;99360.19;1647419;85;20439;-78
2022/07/28 10:47:26;;;;;;;;;;;;;;;32.20;24.61;99362.28;1678053;84;21772;-77
2022/07/28 10:49:55;;;;;;;;;;;;;;;32.15;25.06;99358.26;1647275;85;20131;-77
2022/07/28 10:52:22;;;;;;;;;;;;;;;32.19;25.35;99362.02;1664076;85;20174;-76
2022/07/28 10:55:01;;;;;;;;;;;;;;;32.19;25.41;99355.14;1632513;86;20659;-77
2022/07/28 10:57:28;;;;;;;;;;;;;;;32.20;25.55;99354.81;1669264;84;20149;-78
2022/07/28 11:00:16;;;;;;;;;;;;;;;32.14;25.25;99357.47;1666812;84;20564;-77
2022/07/28 11:02:55;;;;;;;;;;;;;;;32.01;25.14;99353.41;1639898;85;20089;-79
2022/07/28 11:05:39;;;;;;;;;;;;;;;31.80;25.49;99350.88;1647387;85;20495;-79
2022/07/28 11:08:09;;;;;;;;;;;;;;;31.79;26.36;99350.06;1664278;84;20112;-78
2022/07/28 11:10:48;;;;;;;;;;;;;;;31.87;26.52;99355.38;1657790;84;20093;-77
2022/07/28 11:13:27;;;;;;;;;;;;;;;31.84;26.04;99351.31;1641183;85;20627;-77
2022/07/28 11:15:54;;;;;;;;;;;;;;;31.83;26.66;99354.39;1656374;85;20170;-77
2022/07/28 11:18:21;;;;;;;;;;;;;;;31.89;26.82;99350.39;1695070;84;20101;-77
2022/07/28 11:20:56;;;;;;;;;;;;;;;31.80;26.55;99357.20;1676005;84;20168;-78
2022/07/28 11:23:42;;;;;;;;;;;;;;;31.71;26.53;99355.75;1673619;84;20086;-78
2022/07/28 11:26:18;;;;;;;;;;;;;;;31.55;26.78;99348.98;1656382;85;21193;-77
2022/07/28 11:29:10;;;;;;;;;;;;;;;31.43;26.74;99353.37;1671443;84;20127;-77
2022/07/28 11:31:47;;;;;;;;;;;;;;;31.28;26.91;99353.17;1646734;85;20105;-78
2022/07/28 11:34:15;;;;;;;;;;;;;;;31.19;26.95;99349.51;1644874;86;20101;-78
2022/07/28 11:37:12;;;;;;;;;;;;;;;31.10;27.37;99347.25;1656661;85;20474;-77
2022/07/28 11:39:40;;;;;;;;;;;;;;;31.03;27.70;99349.02;1655991;85;21589;-78
2022/07/28 11:42:25;;;;;;;;;;;;;;;30.90;27.30;99349.81;1656259;85;20118;-78
2022/07/28 11:44:52;;;;;;;;;;;;;;;30.75;27.60;99350.69;1676108;84;20132;-80
2022/07/28 11:47:21;;;;;;;;;;;;;;;30.65;28.19;99350.89;1657160;85;20137;-78
2022/07/28 11:50:10;;;;;;;;;;;;;;;30.65;28.63;99353.64;1644947;85;20127;-77
2022/07/28 11:52:37;;;;;;;;;;;;;;;30.72;28.91;99343.88;1656325;85;21154;-78
2022/07/28 11:55:03;;;;;;;;;;;;;;;30.84;29.17;99344.75;1676116;84;20105;-77
2022/07/28 11:57:32;;;;;;;;;;;;;;;30.94;28.73;99343.20;1673745;84;20436;-78
2022/07/28 12:00:00;;;;;;;;;;;;;;;30.95;28.34;99341.50;1654270;85;20116;-78
2022/07/28 12:02:28;;;;;;;;;;;;;;;30.94;28.46;99339.89;1673674;84;20123;-79
2022/07/28 12:04:59;;;;;;;;;;;;;;;30.90;28.34;99344.33;1656292;85;21149;-79
2022/07/28 12:07:32;;;;;;;;;;;;;;;30.84;28.91;99337.33;1676056;84;20136;-79
2022/07/28 12:10:00;;;;;;;;;;;;;;;30.81;28.87;99344.80;1673799;84;20133;-78
2022/07/28 12:12:26;;;;;;;;;;;;;;;30.76;28.41;99342.72;1664118;85;20100;-78
2022/07/28 12:14:55;;;;;;;;;;;;;;;30.70;28.42;99342.00;1669319;84;20153;-78
2022/07/28 12:17:24;;;;;;;;;;;;;;;30.70;28.74;99341.19;1680419;84;21139;-78
2022/07/28 12:19:52;;;;;;;;;;;;;;;30.73;28.30;99339.20;1667908;84;20115;-78
2022/07/28 12:22:18;;;;;;;;;;;;;;;30.78;28.21;99337.73;1635818;86;20154;-78
2022/07/28 12:24:44;;;;;;;;;;;;;;;30.81;28.46;99337.13;1669457;84;20101;-77
2022/07/28 12:27:12;;;;;;;;;;;;;;;30.87;28.69;99335.91;1664345;84;20095;-77
2022/07/28 12:29:39;;;;;;;;;;;;;;;30.91;28.82;99321.28;1647247;85;21575;-79
2022/07/28 12:32:08;;;;;;;;;;;;;;;31.00;28.78;99329.03;1664171;84;20187;-78
2022/07/28 12:34:38;;;;;;;;;;;;;;;31.01;28.64;99329.30;1647315;85;20570;-78
2022/07/28 12:37:05;;;;;;;;;;;;;;;30.98;28.29;99324.41;1647372;85;20130;-77
2022/07/28 12:39:35;;;;;;;;;;;;;;;30.95;28.87;99330.52;1647338;85;20095;-79
2022/07/28 12:42:04;;;;;;;;;;;;;;;30.98;29.17;99326.34;1664255;85;21159;-78
2022/07/28 12:44:36;;;;;;;;;;;;;;;30.95;28.48;99322.28;1648006;85;20106;-78
2022/07/28 12:47:03;;;;;;;;;;;;;;;30.88;28.63;99321.86;1665195;85;20087;-78
2022/07/28 12:49:29;;;;;;;;;;;;;;;30.80;28.14;99321.75;1648654;85;20103;-79
2022/07/28 12:51:57;;;;;;;;;;;;;;;30.64;28.24;99322.63;1669276;84;20109;-78
2022/07/28 12:54:34;;;;;;;;;;;;;;;30.54;28.50;99321.45;1670114;84;21107;-78
2022/07/28 12:57:01;;;;;;;;;;;;;;;30.52;28.78;99316.28;1664535;85;20437;-77
2022/07/28 12:59:33;;;;;;;;;;;;;;;30.53;28.83;99317.89;1669157;84;20153;-79